Terminal Aerodrome Forecast
Issued by NWS Paducah, KY

Home | Current Version | Previous Version | Text Only | Print | Product List | Glossary On
Versions: 1 2 3 4 5 6 7 8 9 10 11 12 13 14 15 16 17 18
000
FTUS43 KPAH 251558 AAB
TAFEVV
TAF AMD
KEVV 251558Z 2516/2612 32006KT P6SM BKN015
     FM251800 VRB04KT P6SM SCT025
     FM260300 08007KT P6SM -SHRA SCT025 BKN040
     FM260500 09012KT 5SM TSRA BKN025CB
     FM260800 32014G23KT 3SM SHRA BR BKN015=

USA.gov is the U.S. government's official web portal to all federal, state and local government web resources and services.